Crouch, ID

9:23 AM MST on January 29, 2015 (GMT -0700)
Stanley | Change Station
CLOSE
Current Station
Airport
Location: Stanley,
Elevation: 6496 ft
Nearby Weather Stations

Elev 6496 ft 44.17 °N, 114.93 °W | Updated 32 minutes ago

Partly Cloudy
Partly Cloudy
13 °F
Feels Like 7 °F
N
4
Wind Variable Wind from East
Gusts 2 mph

Today
High -- | Low -- °F
--% Chance of Precip.
Yesterday
High -- | Low -- °F
Precip. -- in
8:03 AM 5:48 PM
Waxing Gibbous, 75% visible
Pressure 30.53 in
Visibility -9999.0 miles
Clouds
Windchill 7 °F
Dew Point 7 °F
Humidity 77%
Rainfall 0.00 in
Snow Depth Not available.
UV Not available.
Pollen 1.30 out of 12
Air Quality Not available.
Flu Activity Not available.
METAR KSNT 291551Z AUTO 09003KT M11/M14 A3044 RMK AO1 SLP338 T11061139

More Conditions Fewer Conditions

Pressure 30.53 in
Visibility -9999.0 miles
Clouds
Windchill 7 °F
Dew Point 7 °F
Humidity 77%
Rainfall 0.00 in
Snow Depth Not available.
UV Not available.
Pollen 1.30 out of 12
Air Quality Not available.
Flu Activity Not available.
METAR KSNT 291551Z AUTO 09003KT M11/M14 A3044 RMK AO1 SLP338 T11061139

More Conditions Fewer Conditions

10-Day Weather Forecast

Almanac

Astronomy

Jan. 29, 2015 Rise Set
Actual Time
Civil Twilight
Nautical Twilight
Astronomical Twilight
Moon
Length of Visible Light
Length of Day
Tomorrow will be .
, % of the Moon is Illuminated

Today's Extremes

State Highs State Lows

Community

WunderPhotos

Upload Photos

1,791,466 photos uploaded!

WunderBlogs® & News

Nearby

Air Quality

  Air Quality AQ Index Pollutant
Not available.

Snow Depth

Station Depth Elevation

Earthquake Activity

City Distance Mag. Time & Date
Minimum magnitude displayed is 2.5.

Coastal Water Temperatures

Place Temperature

Nearby Weather Stations